createdAt,value
2019-04-03T00:01:44.700Z,8.30
2019-04-03T00:05:48.279Z,8.10
2019-04-03T00:09:51.863Z,8.10
2019-04-03T00:13:55.463Z,8.30
2019-04-03T00:17:59.067Z,8.40
2019-04-03T00:22:02.668Z,8.40
2019-04-03T00:26:06.248Z,8.20
2019-04-03T00:30:11.678Z,7.70
2019-04-03T00:34:15.281Z,7.90
2019-04-03T00:38:18.963Z,8.20
2019-04-03T00:42:24.092Z,8.30
2019-04-03T00:46:27.711Z,8.30
2019-04-03T00:50:31.296Z,8.50
2019-04-03T00:54:34.895Z,8.60
2019-04-03T00:58:42.843Z,8.60
2019-04-03T01:02:46.456Z,8.60
2019-04-03T01:06:50.027Z,8.80
2019-04-03T01:10:53.669Z,9.00
2019-04-03T01:14:57.248Z,9.10
2019-04-03T01:19:00.805Z,9.10
2019-04-03T01:23:06.895Z,9.20
2019-04-03T01:27:11.177Z,9.20
2019-04-03T01:31:15.163Z,9.20
2019-04-03T01:35:18.931Z,9.30
2019-04-03T01:39:22.572Z,9.40
2019-04-03T01:43:27.853Z,9.50
2019-04-03T01:47:31.354Z,9.60
2019-04-03T01:51:34.935Z,9.70
2019-04-03T01:55:38.542Z,9.70
2019-04-03T01:59:42.141Z,9.60
2019-04-03T02:03:45.787Z,9.20
2019-04-03T02:07:49.455Z,9.00
2019-04-03T02:11:53.090Z,8.70
2019-04-03T02:15:56.716Z,8.60
2019-04-03T02:20:00.310Z,8.60
2019-04-03T02:24:03.919Z,8.70
2019-04-03T02:28:07.582Z,8.60
2019-04-03T02:32:11.177Z,8.60
2019-04-03T02:36:15.013Z,8.90
2019-04-03T02:40:18.900Z,8.90
2019-04-03T02:44:22.617Z,8.60
2019-04-03T02:48:26.203Z,8.60
2019-04-03T02:52:30.117Z,8.60
2019-04-03T02:56:33.814Z,8.50
2019-04-03T03:00:37.392Z,8.50
2019-04-03T03:04:40.996Z,8.50
2019-04-03T03:08:44.865Z,8.50
2019-04-03T03:12:48.800Z,8.60
2019-04-03T03:16:52.751Z,8.50
2019-04-03T03:20:57.442Z,8.40
2019-04-03T03:25:01.690Z,8.10
2019-04-03T03:29:16.492Z,7.80
2019-04-03T03:33:28.424Z,7.60
2019-04-03T03:37:17.127Z,7.50
2019-04-03T03:41:23.244Z,7.40
2019-04-03T03:45:28.344Z,7.40
2019-04-03T03:49:31.337Z,7.50
2019-04-03T03:53:35.570Z,7.40
2019-04-03T03:57:41.280Z,7.30
2019-04-03T04:01:45.051Z,7.20
2019-04-03T04:05:48.726Z,7.20
2019-04-03T04:09:53.230Z,7.20
2019-04-03T04:13:57.024Z,7.20
2019-04-03T04:18:00.607Z,7.10
2019-04-03T04:22:04.346Z,7.10
2019-04-03T04:26:08.081Z,7.20
2019-04-03T04:30:13.291Z,7.20
2019-04-03T04:34:18.905Z,7.10
2019-04-03T04:38:22.101Z,7.20
2019-04-03T04:42:25.717Z,7.20
2019-04-03T04:46:29.502Z,7.20
2019-04-03T04:50:33.099Z,7.20
2019-04-03T04:54:36.684Z,7.30
2019-04-03T04:58:42.722Z,7.30
2019-04-03T05:02:45.816Z,7.40
2019-04-03T05:06:49.545Z,7.40
2019-04-03T05:10:53.122Z,7.40
2019-04-03T05:14:56.671Z,7.40
2019-04-03T05:19:09.786Z,7.50
2019-04-03T05:23:05.627Z,7.50
2019-04-03T05:27:09.237Z,7.50
2019-04-03T05:31:13.023Z,7.50
2019-04-03T05:35:16.635Z,7.50
2019-04-03T05:39:20.382Z,7.50
2019-04-03T05:43:23.902Z,7.50
2019-04-03T05:47:27.572Z,7.40
2019-04-03T05:51:31.397Z,7.30
2019-04-03T05:55:35.248Z,7.40
2019-04-03T05:59:38.977Z,7.50
2019-04-03T06:03:45.145Z,7.60
2019-04-03T06:07:49.624Z,7.70
2019-04-03T06:11:53.072Z,7.70
2019-04-03T06:15:56.652Z,7.80
2019-04-03T06:20:00.238Z,7.90
2019-04-03T06:24:04.028Z,8.00
2019-04-03T06:28:07.645Z,8.20
2019-04-03T06:32:11.249Z,8.40
2019-04-03T06:36:16.957Z,8.50
2019-04-03T06:40:20.052Z,8.60
2019-04-03T06:44:23.642Z,8.70
2019-04-03T06:48:27.545Z,8.80
2019-04-03T06:52:31.167Z,8.90
2019-04-03T06:56:34.767Z,9.10
2019-04-03T07:00:38.342Z,9.10
2019-04-03T07:04:42.216Z,9.20
2019-04-03T07:08:47.130Z,9.30
2019-04-03T07:12:50.720Z,9.50
2019-04-03T07:16:54.468Z,9.60
2019-04-03T07:20:58.409Z,9.70
2019-04-03T07:25:03.534Z,9.80
2019-04-03T07:29:07.219Z,9.90
2019-04-03T07:33:10.922Z,9.90
2019-04-03T07:37:15.485Z,10.00
2019-04-03T07:41:22.087Z,10.10
2019-04-03T07:45:25.070Z,10.30
2019-04-03T07:49:28.890Z,10.30
2019-04-03T07:53:32.568Z,10.40
2019-04-03T07:57:37.098Z,10.40
2019-04-03T08:01:41.783Z,10.40
2019-04-03T08:05:45.459Z,10.40
2019-04-03T08:09:49.129Z,10.40
2019-04-03T08:13:52.808Z,10.30
2019-04-03T08:17:57.585Z,10.30
2019-04-03T08:22:02.059Z,10.20
2019-04-03T08:26:06.018Z,10.20
2019-04-03T08:30:10.130Z,10.20
2019-04-03T08:34:17.086Z,10.20
2019-04-03T08:38:19.279Z,10.20
2019-04-03T08:42:23.046Z,10.20
2019-04-03T08:46:26.752Z,10.20
2019-04-03T08:50:30.342Z,10.30
2019-04-03T08:54:33.927Z,10.30
2019-04-03T08:58:37.546Z,10.40
2019-04-03T09:02:43.464Z,10.40
2019-04-03T09:06:46.664Z,10.50
2019-04-03T09:10:50.317Z,10.50
2019-04-03T09:14:56.383Z,10.50
2019-04-03T09:18:59.103Z,10.50
2019-04-03T09:23:02.729Z,10.50
2019-04-03T09:27:08.167Z,10.50
2019-04-03T09:31:11.711Z,10.50
2019-04-03T09:35:15.572Z,10.50
2019-04-03T09:39:19.175Z,10.50
2019-04-03T09:43:23.218Z,10.40
2019-04-03T09:47:27.232Z,10.40
2019-04-03T09:51:31.124Z,10.30
2019-04-03T09:55:37.281Z,10.30
2019-04-03T09:59:39.963Z,10.30
2019-04-03T10:03:43.569Z,10.30
2019-04-03T10:07:47.254Z,10.30
2019-04-03T10:11:51.961Z,10.30
2019-04-03T10:15:56.148Z,10.30
2019-04-03T10:19:59.802Z,10.30
2019-04-03T10:24:03.420Z,10.30
2019-04-03T10:28:07.008Z,10.20
2019-04-03T10:32:10.743Z,10.10
2019-04-03T10:36:17.246Z,10.00
2019-04-03T10:40:19.971Z,10.00
2019-04-03T10:44:23.632Z,9.90
2019-04-03T10:48:28.179Z,9.90
2019-04-03T10:52:32.232Z,9.80
2019-04-03T10:56:35.812Z,9.90
2019-04-03T11:00:39.516Z,10.00
2019-04-03T11:04:43.107Z,10.00
2019-04-03T11:08:46.690Z,10.10
2019-04-03T11:12:50.295Z,10.10
2019-04-03T11:16:53.879Z,10.10
2019-04-03T11:20:57.846Z,10.20
2019-04-03T11:25:01.908Z,10.20
2019-04-03T11:29:08.711Z,10.20
2019-04-03T11:33:12.869Z,10.20
2019-04-03T11:37:16.083Z,10.20
2019-04-03T11:41:21.443Z,10.20
2019-04-03T11:45:24.948Z,10.20
2019-04-03T11:49:28.561Z,10.30
2019-04-03T11:53:33.068Z,10.30
2019-04-03T11:57:37.447Z,10.40
2019-04-03T12:01:41.071Z,10.70
2019-04-03T12:05:47.162Z,10.70
2019-04-03T12:09:49.940Z,10.80
2019-04-03T12:13:53.960Z,10.80
2019-04-03T12:18:00.736Z,10.80
2019-04-03T12:22:03.201Z,10.80
2019-04-03T12:26:07.058Z,10.90
2019-04-03T12:30:11.143Z,11.00
2019-04-03T12:34:15.238Z,11.00
2019-04-03T12:38:23.815Z,11.00
2019-04-03T12:42:29.182Z,11.10
2019-04-03T12:46:41.109Z,11.30
2019-04-03T12:50:45.946Z,11.40
2019-04-03T12:54:52.804Z,11.60
2019-04-03T12:58:55.320Z,11.70
2019-04-03T13:02:58.895Z,11.70
2019-04-03T13:07:05.001Z,11.90
2019-04-03T13:11:07.764Z,11.90
2019-04-03T13:15:12.535Z,11.90
2019-04-03T13:19:16.195Z,12.00
2019-04-03T13:23:20.201Z,12.20
2019-04-03T13:27:23.808Z,12.20
2019-04-03T13:31:27.439Z,12.40
2019-04-03T13:35:31.027Z,12.30
2019-04-03T13:39:34.754Z,12.30
2019-04-03T13:43:38.501Z,12.30
2019-04-03T13:47:45.754Z,12.40
2019-04-03T13:51:47.511Z,12.50
2019-04-03T13:55:51.205Z,12.60
2019-04-03T13:59:59.556Z,12.60
2019-04-03T14:04:00.400Z,12.60
2019-04-03T14:08:06.481Z,12.60
2019-04-03T14:12:09.431Z,12.70
2019-04-03T14:16:19.764Z,12.70
2019-04-03T14:20:19.111Z,12.70
2019-04-03T14:24:22.702Z,12.60
2019-04-03T14:28:26.614Z,12.60
2019-04-03T14:32:30.204Z,12.50
2019-04-03T14:36:34.678Z,12.50
2019-04-03T14:40:38.622Z,12.40
2019-04-03T14:44:45.592Z,12.40
2019-04-03T14:48:48.484Z,12.40
2019-04-03T14:52:52.491Z,12.40
2019-04-03T14:56:56.147Z,12.40
2019-04-03T15:00:59.759Z,12.40
2019-04-03T15:05:03.405Z,12.40
2019-04-03T15:09:09.232Z,12.50
2019-04-03T15:13:14.256Z,12.70
2019-04-03T15:17:18.260Z,12.90
2019-04-03T15:21:23.795Z,12.90
2019-04-03T15:25:27.146Z,12.90
2019-04-03T15:29:30.709Z,13.10
2019-04-03T15:33:34.371Z,13.20
2019-04-03T15:37:40.109Z,13.20
2019-04-03T15:41:43.596Z,13.30
2019-04-03T15:45:47.651Z,13.40
2019-04-03T15:49:51.395Z,13.40
2019-04-03T15:53:55.077Z,13.40
2019-04-03T15:57:59.095Z,13.40
2019-04-03T16:02:02.689Z,13.30
2019-04-03T16:06:06.399Z,13.10
2019-04-03T16:10:10.593Z,12.90
2019-04-03T16:14:14.650Z,12.90
2019-04-03T16:18:20.168Z,12.80
2019-04-03T16:22:23.874Z,12.80
2019-04-03T16:26:28.140Z,12.80
2019-04-03T16:30:31.896Z,12.70
2019-04-03T16:34:35.834Z,12.70
2019-04-03T16:38:39.575Z,12.80
2019-04-03T16:42:43.335Z,12.70
2019-04-03T16:46:46.989Z,12.60
2019-04-03T16:50:50.603Z,12.50
2019-04-03T16:54:54.287Z,12.50
2019-04-03T16:59:00.812Z,12.50
2019-04-03T17:03:03.730Z,12.50
2019-04-03T17:07:07.656Z,12.50
2019-04-03T17:11:12.076Z,12.40
2019-04-03T17:15:16.793Z,12.40
2019-04-03T17:19:20.472Z,12.30
2019-04-03T17:23:24.353Z,12.20
2019-04-03T17:27:30.205Z,12.10
2019-04-03T17:31:34.163Z,11.90
2019-04-03T17:35:37.917Z,11.50
2019-04-03T17:39:41.520Z,11.30
2019-04-03T17:43:45.222Z,11.10
2019-04-03T17:47:49.734Z,11.00
2019-04-03T17:51:54.374Z,10.80
2019-04-03T17:55:57.944Z,10.60
2019-04-03T18:00:02.072Z,10.40
2019-04-03T18:04:05.845Z,10.20
2019-04-03T18:08:09.585Z,9.90
2019-04-03T18:12:13.160Z,9.50
2019-04-03T18:16:16.997Z,9.10
2019-04-03T18:20:20.828Z,9.00
2019-04-03T18:24:24.712Z,9.10
2019-04-03T18:28:28.399Z,8.90
2019-04-03T18:32:32.050Z,8.90
2019-04-03T18:36:35.783Z,8.80
2019-04-03T18:40:39.517Z,8.60
2019-04-03T18:44:43.265Z,8.60
2019-04-03T18:48:53.570Z,8.60
2019-04-03T18:52:52.618Z,8.60
2019-04-03T18:56:56.228Z,8.50
2019-04-03T19:01:01.762Z,8.60
2019-04-03T19:05:10.120Z,8.70
2019-04-03T19:09:13.533Z,8.70
2019-04-03T19:13:17.246Z,8.70
2019-04-03T19:17:20.928Z,8.90
2019-04-03T19:21:28.473Z,9.00
2019-04-03T19:25:30.173Z,8.90
2019-04-03T19:29:35.635Z,8.90
2019-04-03T19:33:39.166Z,8.80
2019-04-03T19:37:45.163Z,8.60
2019-04-03T19:41:48.292Z,8.40
2019-04-03T19:45:52.466Z,8.40
2019-04-03T19:49:59.699Z,8.70
2019-04-03T19:54:01.946Z,9.10
2019-04-03T19:58:05.752Z,9.40
2019-04-03T20:02:10.245Z,9.50
2019-04-03T20:06:14.092Z,9.60
2019-04-03T20:10:17.763Z,9.50
2019-04-03T20:14:21.672Z,9.50
2019-04-03T20:18:26.519Z,9.50
2019-04-03T20:22:30.809Z,9.40
2019-04-03T20:26:34.808Z,9.30
2019-04-03T20:30:38.889Z,9.00
2019-04-03T20:34:44.413Z,8.90
2019-04-03T20:38:47.758Z,8.80
2019-04-03T20:42:51.347Z,8.80
2019-04-03T20:46:56.050Z,8.70
2019-04-03T20:51:00.056Z,8.60
2019-04-03T20:55:04.485Z,8.70
2019-04-03T20:59:11.056Z,8.70
2019-04-03T21:03:13.562Z,8.80
2019-04-03T21:07:17.210Z,8.80
2019-04-03T21:11:20.810Z,8.80
2019-04-03T21:15:24.380Z,8.90
2019-04-03T21:19:27.963Z,8.90
2019-04-03T21:23:33.304Z,8.90
2019-04-03T21:27:39.642Z,8.80
2019-04-03T21:31:42.032Z,8.80
2019-04-03T21:35:46.452Z,8.80
2019-04-03T21:39:50.036Z,8.70
2019-04-03T21:43:55.458Z,8.70
2019-04-03T21:47:58.843Z,8.80
2019-04-03T21:52:02.480Z,8.90
2019-04-03T21:56:06.044Z,8.90
2019-04-03T22:00:14.001Z,8.90
2019-04-03T22:04:26.627Z,8.90
2019-04-03T22:08:34.652Z,9.00
2019-04-03T22:12:38.323Z,9.10
2019-04-03T22:16:51.383Z,9.20
2019-04-03T22:20:55.055Z,9.30
2019-04-03T22:24:58.626Z,9.20
2019-04-03T22:29:02.244Z,9.20
2019-04-03T22:37:19.021Z,9.20
2019-04-03T22:41:22.582Z,9.20
2019-04-03T22:45:26.154Z,9.20
2019-04-03T22:49:29.733Z,9.20
2019-04-03T22:53:33.336Z,9.20
2019-04-03T22:57:36.929Z,9.20
2019-04-03T23:01:40.533Z,9.10
2019-04-03T23:05:44.112Z,9.60
2019-04-03T23:09:47.694Z,10.00
2019-04-03T23:13:51.275Z,10.10
2019-04-03T23:17:54.883Z,10.20
2019-04-03T23:21:58.473Z,10.00
2019-04-03T23:26:02.865Z,9.90
2019-04-03T23:30:09.932Z,9.30
2019-04-03T23:34:12.377Z,9.00
2019-04-03T23:38:15.965Z,9.00
2019-04-03T23:42:19.537Z,8.80
2019-04-03T23:46:23.188Z,8.50
2019-04-03T23:50:26.800Z,8.40
2019-04-03T23:54:33.630Z,8.30
2019-04-03T23:58:35.731Z,8.20
